sensor_id;sensor_type;location;lat;lon;timestamp;pressure;altitude;pressure_sealevel;temperature;humidity
69911;BME280;63555;49.920;17.868;2023-03-22T00:04:49;98595.28;;;5.80;94.77
69911;BME280;63555;49.920;17.868;2023-03-22T00:09:49;98578.25;;;5.73;94.48
69911;BME280;63555;49.920;17.868;2023-03-22T00:14:50;98575.25;;;5.65;94.17
69911;BME280;63555;49.920;17.868;2023-03-22T00:19:51;98573.66;;;5.62;94.62
69911;BME280;63555;49.920;17.868;2023-03-22T00:24:53;98555.44;;;5.61;94.71
69911;BME280;63555;49.920;17.868;2023-03-22T00:29:53;98556.09;;;5.64;94.95
69911;BME280;63555;49.920;17.868;2023-03-22T00:34:54;98554.16;;;5.68;94.77
69911;BME280;63555;49.920;17.868;2023-03-22T00:39:54;98538.19;;;5.72;95.02
69911;BME280;63555;49.920;17.868;2023-03-22T00:44:55;98539.75;;;5.75;94.86
69911;BME280;63555;49.920;17.868;2023-03-22T00:49:55;98530.16;;;5.75;94.97
69911;BME280;63555;49.920;17.868;2023-03-22T00:54:56;98535.38;;;5.75;95.13
69911;BME280;63555;49.920;17.868;2023-03-22T00:59:56;98535.66;;;5.71;95.17
69911;BME280;63555;49.920;17.868;2023-03-22T01:04:57;98527.06;;;5.69;94.87
69911;BME280;63555;49.920;17.868;2023-03-22T01:09:58;98530.41;;;5.71;95.12
69911;BME280;63555;49.920;17.868;2023-03-22T01:14:58;98526.31;;;5.67;94.77
69911;BME280;63555;49.920;17.868;2023-03-22T01:19:58;98516.50;;;5.70;95.03
69911;BME280;63555;49.920;17.868;2023-03-22T01:24:59;98510.97;;;5.75;94.93
69911;BME280;63555;49.920;17.868;2023-03-22T01:29:59;98498.56;;;5.79;94.94
69911;BME280;63555;49.920;17.868;2023-03-22T01:34:59;98495.84;;;5.80;95.33
69911;BME280;63555;49.920;17.868;2023-03-22T01:40:00;98492.13;;;5.84;95.56
69911;BME280;63555;49.920;17.868;2023-03-22T01:50:13;98477.63;;;5.79;95.10
69911;BME280;63555;49.920;17.868;2023-03-22T01:55:14;98478.09;;;5.71;94.76
69911;BME280;63555;49.920;17.868;2023-03-22T02:00:17;98472.22;;;5.67;94.77
69911;BME280;63555;49.920;17.868;2023-03-22T02:05:19;98466.41;;;5.62;94.78
69911;BME280;63555;49.920;17.868;2023-03-22T02:10:25;98463.22;;;5.57;95.06
69911;BME280;63555;49.920;17.868;2023-03-22T02:15:39;98464.44;;;5.52;94.74
69911;BME280;63555;49.920;17.868;2023-03-22T02:46:46;98447.34;;;5.74;95.29
69911;BME280;63555;49.920;17.868;2023-03-22T02:52:14;98439.03;;;5.82;94.88
69911;BME280;63555;49.920;17.868;2023-03-22T02:57:42;98435.13;;;5.89;95.45
69911;BME280;63555;49.920;17.868;2023-03-22T03:02:49;98436.72;;;5.92;95.14
69911;BME280;63555;49.920;17.868;2023-03-22T03:07:55;98439.91;;;5.97;95.26
69911;BME280;63555;49.920;17.868;2023-03-22T03:12:57;98439.72;;;6.00;95.11
69911;BME280;63555;49.920;17.868;2023-03-22T03:18:07;98441.28;;;6.02;94.82
69911;BME280;63555;49.920;17.868;2023-03-22T03:29:06;98443.16;;;6.00;95.18
69911;BME280;63555;49.920;17.868;2023-03-22T03:34:21;98444.19;;;5.98;94.72
69911;BME280;63555;49.920;17.868;2023-03-22T03:39:25;98438.88;;;5.99;95.62
69911;BME280;63555;49.920;17.868;2023-03-22T03:44:30;98445.78;;;6.00;95.19
69911;BME280;63555;49.920;17.868;2023-03-22T03:49:31;98445.59;;;6.03;95.02
69911;BME280;63555;49.920;17.868;2023-03-22T03:54:32;98442.88;;;6.05;95.28
69911;BME280;63555;49.920;17.868;2023-03-22T03:59:32;98437.63;;;6.05;94.96
69911;BME280;63555;49.920;17.868;2023-03-22T04:04:33;98440.94;;;6.09;95.07
69911;BME280;63555;49.920;17.868;2023-03-22T04:09:36;98450.19;;;6.14;95.18
69911;BME280;63555;49.920;17.868;2023-03-22T04:14:37;98444.75;;;6.17;94.75
69911;BME280;63555;49.920;17.868;2023-03-22T04:19:37;98447.28;;;6.19;95.11
69911;BME280;63555;49.920;17.868;2023-03-22T04:24:37;98444.66;;;6.19;94.67
69911;BME280;63555;49.920;17.868;2023-03-22T04:29:38;98444.63;;;6.33;94.95
69911;BME280;63555;49.920;17.868;2023-03-22T04:34:39;98442.41;;;6.54;95.45
69911;BME280;63555;49.920;17.868;2023-03-22T04:39:40;98440.88;;;6.64;95.59
69911;BME280;63555;49.920;17.868;2023-03-22T04:44:40;98437.88;;;6.70;94.91
69911;BME280;63555;49.920;17.868;2023-03-22T04:49:40;98437.47;;;6.76;94.69
69911;BME280;63555;49.920;17.868;2023-03-22T04:54:41;98444.94;;;6.82;95.13
69911;BME280;63555;49.920;17.868;2023-03-22T04:59:41;98450.59;;;6.89;94.67
69911;BME280;63555;49.920;17.868;2023-03-22T05:04:42;98456.47;;;6.92;94.70
69911;BME280;63555;49.920;17.868;2023-03-22T05:09:42;98450.88;;;6.98;94.79
69911;BME280;63555;49.920;17.868;2023-03-22T05:14:42;98450.38;;;7.06;94.33
69911;BME280;63555;49.920;17.868;2023-03-22T05:19:43;98454.25;;;7.13;94.48
69911;BME280;63555;49.920;17.868;2023-03-22T05:24:43;98459.09;;;7.19;94.26
69911;BME280;63555;49.920;17.868;2023-03-22T05:29:44;98459.53;;;7.26;94.32
69911;BME280;63555;49.920;17.868;2023-03-22T05:34:45;98465.19;;;7.32;93.63
69911;BME280;63555;49.920;17.868;2023-03-22T05:39:47;98462.38;;;7.35;94.05
69911;BME280;63555;49.920;17.868;2023-03-22T05:44:47;98468.13;;;7.41;94.06
69911;BME280;63555;49.920;17.868;2023-03-22T05:49:48;98460.50;;;7.50;94.64
69911;BME280;63555;49.920;17.868;2023-03-22T05:54:48;98470.56;;;7.69;94.58
69911;BME280;63555;49.920;17.868;2023-03-22T05:59:48;98469.34;;;7.87;94.33
69911;BME280;63555;49.920;17.868;2023-03-22T06:04:52;98473.09;;;8.09;93.93
69911;BME280;63555;49.920;17.868;2023-03-22T06:09:53;98468.94;;;8.30;94.25
69911;BME280;63555;49.920;17.868;2023-03-22T06:14:53;98464.16;;;8.60;94.52
69911;BME280;63555;49.920;17.868;2023-03-22T06:19:54;98469.16;;;9.00;94.40
69911;BME280;63555;49.920;17.868;2023-03-22T06:24:54;98470.38;;;9.42;93.91
69911;BME280;63555;49.920;17.868;2023-03-22T06:29:54;98469.38;;;9.78;93.35
69911;BME280;63555;49.920;17.868;2023-03-22T06:34:55;98469.38;;;10.01;92.44
69911;BME280;63555;49.920;17.868;2023-03-22T06:39:55;98471.22;;;10.23;92.09
69911;BME280;63555;49.920;17.868;2023-03-22T06:44:56;98483.19;;;10.49;91.44
69911;BME280;63555;49.920;17.868;2023-03-22T06:49:56;98469.31;;;10.90;91.42
69911;BME280;63555;49.920;17.868;2023-03-22T06:54:57;98468.16;;;11.36;90.77
69911;BME280;63555;49.920;17.868;2023-03-22T06:59:57;98466.63;;;11.75;89.19
69911;BME280;63555;49.920;17.868;2023-03-22T07:04:57;98468.28;;;11.97;88.77
69911;BME280;63555;49.920;17.868;2023-03-22T07:09:58;98471.38;;;12.02;87.90
69911;BME280;63555;49.920;17.868;2023-03-22T07:14:58;98464.06;;;11.85;86.83
69911;BME280;63555;49.920;17.868;2023-03-22T07:19:58;98465.28;;;11.60;87.35
69911;BME280;63555;49.920;17.868;2023-03-22T07:24:59;98470.28;;;11.42;87.71
69911;BME280;63555;49.920;17.868;2023-03-22T07:29:59;98463.41;;;11.51;88.12
69911;BME280;63555;49.920;17.868;2023-03-22T07:35:00;98459.53;;;11.75;88.54
69911;BME280;63555;49.920;17.868;2023-03-22T07:40:00;98460.66;;;12.03;87.98
69911;BME280;63555;49.920;17.868;2023-03-22T07:45:01;98454.00;;;12.39;87.65
69911;BME280;63555;49.920;17.868;2023-03-22T07:50:01;98455.03;;;12.67;87.43
69911;BME280;63555;49.920;17.868;2023-03-22T07:55:02;98453.13;;;12.89;87.27
69911;BME280;63555;49.920;17.868;2023-03-22T08:00:06;98457.50;;;13.19;86.90
69911;BME280;63555;49.920;17.868;2023-03-22T08:05:09;98445.91;;;13.49;86.11
69911;BME280;63555;49.920;17.868;2023-03-22T08:10:10;98441.13;;;13.71;85.50
69911;BME280;63555;49.920;17.868;2023-03-22T08:15:11;98436.94;;;13.69;84.78
69911;BME280;63555;49.920;17.868;2023-03-22T08:20:11;98436.25;;;13.67;84.60
69911;BME280;63555;49.920;17.868;2023-03-22T08:25:12;98431.53;;;13.61;84.50
69911;BME280;63555;49.920;17.868;2023-03-22T08:30:13;98429.28;;;13.66;84.49
69911;BME280;63555;49.920;17.868;2023-03-22T08:35:14;98423.66;;;13.79;84.58
69911;BME280;63555;49.920;17.868;2023-03-22T08:40:15;98415.09;;;14.04;83.56
69911;BME280;63555;49.920;17.868;2023-03-22T08:45:16;98413.50;;;14.39;83.00
69911;BME280;63555;49.920;17.868;2023-03-22T08:50:18;98415.41;;;14.74;82.41
69911;BME280;63555;49.920;17.868;2023-03-22T08:55:18;98424.16;;;15.19;81.27
69911;BME280;63555;49.920;17.868;2023-03-22T09:00:19;98423.41;;;15.53;80.68
69911;BME280;63555;49.920;17.868;2023-03-22T09:05:19;98422.06;;;15.67;79.44
69911;BME280;63555;49.920;17.868;2023-03-22T09:10:20;98418.88;;;15.63;79.39
69911;BME280;63555;49.920;17.868;2023-03-22T09:15:20;98422.63;;;15.78;79.12
69911;BME280;63555;49.920;17.868;2023-03-22T09:20:20;98411.22;;;15.86;79.18
69911;BME280;63555;49.920;17.868;2023-03-22T09:25:24;98412.69;;;16.48;77.95
69911;BME280;63555;49.920;17.868;2023-03-22T09:30:25;98390.50;;;17.39;75.91
69911;BME280;63555;49.920;17.868;2023-03-22T09:35:25;98390.91;;;18.46;73.38
69911;BME280;63555;49.920;17.868;2023-03-22T09:40:28;98391.72;;;19.84;70.39
69911;BME280;63555;49.920;17.868;2023-03-22T09:45:33;98374.91;;;20.49;67.13
69911;BME280;63555;49.920;17.868;2023-03-22T09:50:44;98367.81;;;20.99;65.83
69911;BME280;63555;49.920;17.868;2023-03-22T10:06:07;98345.63;;;24.03;54.23
69911;BME280;63555;49.920;17.868;2023-03-22T10:16:29;98330.13;;;25.69;48.36
69911;BME280;63555;49.920;17.868;2023-03-22T10:21:32;98338.03;;;25.21;47.48
69911;BME280;63555;49.920;17.868;2023-03-22T10:26:44;98317.72;;;26.23;45.14
69911;BME280;63555;49.920;17.868;2023-03-22T10:31:45;98320.59;;;27.53;42.83
69911;BME280;63555;49.920;17.868;2023-03-22T10:36:47;98300.16;;;28.33;40.94
69911;BME280;63555;49.920;17.868;2023-03-22T10:41:52;98305.88;;;28.76;39.47
69911;BME280;63555;49.920;17.868;2023-03-22T10:46:54;98300.59;;;29.32;36.95
69911;BME280;63555;49.920;17.868;2023-03-22T10:52:00;98294.91;;;30.05;36.45
69911;BME280;63555;49.920;17.868;2023-03-22T10:57:01;98291.81;;;30.19;35.44
69911;BME280;63555;49.920;17.868;2023-03-22T11:02:02;98295.88;;;29.77;35.94
69911;BME280;63555;49.920;17.868;2023-03-22T11:07:02;98290.31;;;29.67;34.85
69911;BME280;63555;49.920;17.868;2023-03-22T11:12:03;98290.56;;;29.66;35.15
69911;BME280;63555;49.920;17.868;2023-03-22T11:17:20;98292.78;;;29.69;33.74
69911;BME280;63555;49.920;17.868;2023-03-22T11:27:34;98284.81;;;29.62;32.89
69911;BME280;63555;49.920;17.868;2023-03-22T11:32:37;98283.22;;;28.99;32.69
69911;BME280;63555;49.920;17.868;2023-03-22T11:37:51;98271.63;;;28.87;32.51
69911;BME280;63555;49.920;17.868;2023-03-22T11:43:02;98270.22;;;29.01;32.37
69911;BME280;63555;49.920;17.868;2023-03-22T11:48:24;98260.06;;;28.63;31.84
69911;BME280;63555;49.920;17.868;2023-03-22T11:53:26;98260.94;;;28.97;32.07
69911;BME280;63555;49.920;17.868;2023-03-22T11:58:48;98249.47;;;29.45;30.38
69911;BME280;63555;49.920;17.868;2023-03-22T12:03:54;98244.13;;;28.38;30.52
69911;BME280;63555;49.920;17.868;2023-03-22T12:09:01;98226.50;;;27.72;31.82
69911;BME280;63555;49.920;17.868;2023-03-22T12:19:40;98236.75;;;27.23;31.98
69911;BME280;63555;49.920;17.868;2023-03-22T12:24:44;98240.63;;;27.63;31.44
69911;BME280;63555;49.920;17.868;2023-03-22T12:29:53;98229.16;;;27.96;31.13
69911;BME280;63555;49.920;17.868;2023-03-22T12:34:56;98223.72;;;28.36;30.37
69911;BME280;63555;49.920;17.868;2023-03-22T12:40:23;98218.94;;;28.26;30.09
69911;BME280;63555;49.920;17.868;2023-03-22T12:45:27;98221.00;;;27.20;31.37
69911;BME280;63555;49.920;17.868;2023-03-22T12:50:42;98213.00;;;25.82;32.66
69911;BME280;63555;49.920;17.868;2023-03-22T12:55:46;98225.53;;;24.90;33.91
69911;BME280;63555;49.920;17.868;2023-03-22T13:05:59;98209.69;;;24.06;35.34
69911;BME280;63555;49.920;17.868;2023-03-22T13:11:03;98208.91;;;23.92;35.35
69911;BME280;63555;49.920;17.868;2023-03-22T13:21:24;98197.38;;;24.30;35.19
69911;BME280;63555;49.920;17.868;2023-03-22T13:26:50;98197.13;;;23.87;34.88
69911;BME280;63555;49.920;17.868;2023-03-22T13:31:59;98193.84;;;22.87;36.60
69911;BME280;63555;49.920;17.868;2023-03-22T13:37:01;98195.53;;;21.94;37.95
69911;BME280;63555;49.920;17.868;2023-03-22T13:42:11;98196.75;;;21.44;38.84
69911;BME280;63555;49.920;17.868;2023-03-22T13:52:41;98186.34;;;20.72;39.92
69911;BME280;63555;49.920;17.868;2023-03-22T13:57:57;98181.63;;;20.31;40.37
69911;BME280;63555;49.920;17.868;2023-03-22T14:03:14;98169.78;;;19.83;41.27
69911;BME280;63555;49.920;17.868;2023-03-22T14:08:27;98163.00;;;19.51;41.85
69911;BME280;63555;49.920;17.868;2023-03-22T14:13:33;98174.13;;;19.18;42.33
69911;BME280;63555;49.920;17.868;2023-03-22T14:18:39;98178.69;;;18.95;42.75
69911;BME280;63555;49.920;17.868;2023-03-22T14:23:45;98169.56;;;19.04;43.08
69911;BME280;63555;49.920;17.868;2023-03-22T14:28:46;98172.81;;;19.29;42.61
69911;BME280;63555;49.920;17.868;2023-03-22T14:33:47;98176.22;;;19.88;41.65
69911;BME280;63555;49.920;17.868;2023-03-22T14:38:49;98165.25;;;20.90;40.66
69911;BME280;63555;49.920;17.868;2023-03-22T14:44:00;98168.03;;;21.38;39.55
69911;BME280;63555;49.920;17.868;2023-03-22T14:49:02;98169.06;;;21.37;39.50
69911;BME280;63555;49.920;17.868;2023-03-22T14:54:05;98168.53;;;20.85;40.42
69911;BME280;63555;49.920;17.868;2023-03-22T14:59:12;98163.25;;;20.71;40.26
69911;BME280;63555;49.920;17.868;2023-03-22T15:04:14;98157.72;;;20.79;40.81
69911;BME280;63555;49.920;17.868;2023-03-22T15:09:16;98151.25;;;20.66;41.16
69911;BME280;63555;49.920;17.868;2023-03-22T15:14:18;98149.84;;;20.43;41.60
69911;BME280;63555;49.920;17.868;2023-03-22T15:19:21;98140.00;;;20.07;42.38
69911;BME280;63555;49.920;17.868;2023-03-22T15:25:09;98144.41;;;19.42;42.82
69911;BME280;63555;49.920;17.868;2023-03-22T15:29:48;98144.78;;;18.95;43.56
69911;BME280;63555;49.920;17.868;2023-03-22T15:34:51;98146.34;;;18.90;44.30
69911;BME280;63555;49.920;17.868;2023-03-22T15:39:52;98140.91;;;19.27;43.62
69911;BME280;63555;49.920;17.868;2023-03-22T15:49:56;98131.53;;;20.03;42.52
69911;BME280;63555;49.920;17.868;2023-03-22T15:55:12;98138.13;;;19.86;42.30
69911;BME280;63555;49.920;17.868;2023-03-22T16:00:20;98119.69;;;19.40;43.57
69911;BME280;63555;49.920;17.868;2023-03-22T16:05:21;98125.88;;;18.97;44.43
69911;BME280;63555;49.920;17.868;2023-03-22T16:10:23;98112.75;;;18.58;45.03
69911;BME280;63555;49.920;17.868;2023-03-22T16:15:30;98126.44;;;18.17;45.45
69911;BME280;63555;49.920;17.868;2023-03-22T16:20:31;98121.34;;;17.62;46.61
69911;BME280;63555;49.920;17.868;2023-03-22T16:25:33;98122.88;;;17.17;47.06
69911;BME280;63555;49.920;17.868;2023-03-22T16:30:34;98123.88;;;16.69;48.09
69911;BME280;63555;49.920;17.868;2023-03-22T16:35:34;98116.72;;;16.12;48.89
69911;BME280;63555;49.920;17.868;2023-03-22T16:40:35;98118.00;;;15.59;49.85
69911;BME280;63555;49.920;17.868;2023-03-22T16:45:35;98126.00;;;15.17;50.61
69911;BME280;63555;49.920;17.868;2023-03-22T16:50:38;98128.81;;;14.82;51.24
69911;BME280;63555;49.920;17.868;2023-03-22T16:55:40;98128.44;;;14.51;51.71
69911;BME280;63555;49.920;17.868;2023-03-22T17:00:41;98129.41;;;14.24;52.47
69911;BME280;63555;49.920;17.868;2023-03-22T17:05:42;98132.00;;;13.98;52.82
69911;BME280;63555;49.920;17.868;2023-03-22T17:10:42;98141.00;;;13.69;53.23
69911;BME280;63555;49.920;17.868;2023-03-22T17:15:47;98133.78;;;13.44;53.85
69911;BME280;63555;49.920;17.868;2023-03-22T17:20:48;98137.53;;;13.24;54.29
69911;BME280;63555;49.920;17.868;2023-03-22T17:25:49;98136.31;;;13.18;54.61
69911;BME280;63555;49.920;17.868;2023-03-22T17:30:51;98137.56;;;13.14;54.75
69911;BME280;63555;49.920;17.868;2023-03-22T17:35:52;98140.25;;;13.04;54.87
69911;BME280;63555;49.920;17.868;2023-03-22T17:40:52;98135.25;;;13.01;54.83
69911;BME280;63555;49.920;17.868;2023-03-22T17:45:53;98145.13;;;12.99;55.04
69911;BME280;63555;49.920;17.868;2023-03-22T17:50:53;98149.47;;;12.91;55.53
69911;BME280;63555;49.920;17.868;2023-03-22T17:55:54;98144.75;;;12.85;55.76
69911;BME280;63555;49.920;17.868;2023-03-22T18:00:55;98142.28;;;12.73;56.11
69911;BME280;63555;49.920;17.868;2023-03-22T18:05:55;98150.94;;;12.66;56.23
69911;BME280;63555;49.920;17.868;2023-03-22T18:10:56;98163.09;;;12.59;56.67
69911;BME280;63555;49.920;17.868;2023-03-22T18:15:56;98147.78;;;12.53;56.77
69911;BME280;63555;49.920;17.868;2023-03-22T18:21:01;98155.59;;;12.44;56.83
69911;BME280;63555;49.920;17.868;2023-03-22T18:26:04;98160.91;;;12.35;57.08
69911;BME280;63555;49.920;17.868;2023-03-22T18:31:05;98153.13;;;12.33;56.59
69911;BME280;63555;49.920;17.868;2023-03-22T18:36:07;98154.53;;;12.28;57.12
69911;BME280;63555;49.920;17.868;2023-03-22T18:41:09;98142.28;;;12.17;57.32
69911;BME280;63555;49.920;17.868;2023-03-22T18:46:15;98140.47;;;12.08;57.46
69911;BME280;63555;49.920;17.868;2023-03-22T18:51:16;98143.25;;;11.97;58.42
69911;BME280;63555;49.920;17.868;2023-03-22T18:56:16;98150.34;;;11.87;58.10
69911;BME280;63555;49.920;17.868;2023-03-22T19:01:17;98147.56;;;11.78;58.60
69911;BME280;63555;49.920;17.868;2023-03-22T19:06:19;98147.81;;;11.75;58.79
69911;BME280;63555;49.920;17.868;2023-03-22T19:11:20;98150.75;;;11.72;59.35
69911;BME280;63555;49.920;17.868;2023-03-22T19:16:21;98149.06;;;11.71;59.38
69911;BME280;63555;49.920;17.868;2023-03-22T19:21:22;98147.25;;;11.72;60.04
69911;BME280;63555;49.920;17.868;2023-03-22T19:26:24;98140.72;;;11.66;60.16
69911;BME280;63555;49.920;17.868;2023-03-22T19:31:25;98138.38;;;11.73;60.42
69911;BME280;63555;49.920;17.868;2023-03-22T19:36:30;98136.16;;;11.88;60.39
69911;BME280;63555;49.920;17.868;2023-03-22T19:41:31;98140.75;;;12.05;60.41
69911;BME280;63555;49.920;17.868;2023-03-22T19:46:31;98136.03;;;12.18;59.89
69911;BME280;63555;49.920;17.868;2023-03-22T19:51:31;98126.69;;;12.24;60.13
69911;BME280;63555;49.920;17.868;2023-03-22T19:56:32;98125.03;;;12.23;60.50
69911;BME280;63555;49.920;17.868;2023-03-22T20:01:34;98133.81;;;12.23;60.69
69911;BME280;63555;49.920;17.868;2023-03-22T20:06:35;98131.31;;;12.22;60.76
69911;BME280;63555;49.920;17.868;2023-03-22T20:11:36;98121.28;;;12.16;60.89
69911;BME280;63555;49.920;17.868;2023-03-22T20:16:37;98123.34;;;12.12;61.00
69911;BME280;63555;49.920;17.868;2023-03-22T20:21:37;98124.47;;;12.09;60.74
69911;BME280;63555;49.920;17.868;2023-03-22T20:26:40;98127.25;;;12.08;61.11
69911;BME280;63555;49.920;17.868;2023-03-22T20:31:40;98115.00;;;12.07;61.49
69911;BME280;63555;49.920;17.868;2023-03-22T20:36:41;98119.59;;;12.05;61.58
69911;BME280;63555;49.920;17.868;2023-03-22T20:41:42;98115.16;;;12.05;61.20
69911;BME280;63555;49.920;17.868;2023-03-22T20:46:42;98125.31;;;12.10;61.50
69911;BME280;63555;49.920;17.868;2023-03-22T20:51:42;98135.19;;;12.08;60.92
69911;BME280;63555;49.920;17.868;2023-03-22T20:56:43;98127.66;;;12.13;60.84
69911;BME280;63555;49.920;17.868;2023-03-22T21:01:43;98131.72;;;12.17;61.01
69911;BME280;63555;49.920;17.868;2023-03-22T21:06:43;98129.78;;;12.19;61.05
69911;BME280;63555;49.920;17.868;2023-03-22T21:11:44;98129.91;;;12.18;60.45
69911;BME280;63555;49.920;17.868;2023-03-22T21:16:44;98125.44;;;12.08;60.71
69911;BME280;63555;49.920;17.868;2023-03-22T21:21:45;98126.16;;;12.01;60.64
69911;BME280;63555;49.920;17.868;2023-03-22T21:26:45;98123.22;;;11.94;61.37
69911;BME280;63555;49.920;17.868;2023-03-22T21:31:46;98129.78;;;11.90;60.95
69911;BME280;63555;49.920;17.868;2023-03-22T21:36:46;98127.69;;;11.84;61.37
69911;BME280;63555;49.920;17.868;2023-03-22T21:41:47;98125.72;;;11.76;61.38
69911;BME280;63555;49.920;17.868;2023-03-22T21:46:48;98125.03;;;11.74;61.25
69911;BME280;63555;49.920;17.868;2023-03-22T21:51:48;98132.38;;;11.71;61.36
69911;BME280;63555;49.920;17.868;2023-03-22T21:56:48;98133.78;;;11.75;61.33
69911;BME280;63555;49.920;17.868;2023-03-22T22:01:50;98131.72;;;11.78;61.04
69911;BME280;63555;49.920;17.868;2023-03-22T22:06:51;98128.66;;;11.83;60.91
69911;BME280;63555;49.920;17.868;2023-03-22T22:11:53;98134.91;;;11.82;60.92
69911;BME280;63555;49.920;17.868;2023-03-22T22:16:53;98135.91;;;11.81;61.07
69911;BME280;63555;49.920;17.868;2023-03-22T22:21:53;98140.03;;;11.74;61.20
69911;BME280;63555;49.920;17.868;2023-03-22T22:26:55;98133.91;;;11.73;61.74
69911;BME280;63555;49.920;17.868;2023-03-22T22:31:56;98143.78;;;11.71;61.06
69911;BME280;63555;49.920;17.868;2023-03-22T22:36:56;98139.47;;;11.70;61.38
69911;BME280;63555;49.920;17.868;2023-03-22T22:41:56;98127.94;;;11.71;61.51
69911;BME280;63555;49.920;17.868;2023-03-22T22:46:57;98130.16;;;11.76;61.06
69911;BME280;63555;49.920;17.868;2023-03-22T22:51:57;98125.72;;;11.67;61.59
69911;BME280;63555;49.920;17.868;2023-03-22T22:56:57;98129.75;;;11.61;61.67
69911;BME280;63555;49.920;17.868;2023-03-22T23:01:58;98129.47;;;11.55;61.80
69911;BME280;63555;49.920;17.868;2023-03-22T23:06:58;98132.22;;;11.53;61.74
69911;BME280;63555;49.920;17.868;2023-03-22T23:11:58;98135.16;;;11.50;61.60
69911;BME280;63555;49.920;17.868;2023-03-22T23:17:00;98138.06;;;11.47;62.02
69911;BME280;63555;49.920;17.868;2023-03-22T23:22:00;98144.16;;;11.38;61.97
69911;BME280;63555;49.920;17.868;2023-03-22T23:27:02;98148.00;;;11.24;62.16
69911;BME280;63555;49.920;17.868;2023-03-22T23:32:03;98139.75;;;11.08;62.35
69911;BME280;63555;49.920;17.868;2023-03-22T23:37:03;98152.91;;;10.98;62.98
69911;BME280;63555;49.920;17.868;2023-03-22T23:42:09;98145.81;;;10.89;63.05
69911;BME280;63555;49.920;17.868;2023-03-22T23:47:11;98150.78;;;10.82;63.11
69911;BME280;63555;49.920;17.868;2023-03-22T23:52:11;98160.88;;;10.77;63.34
69911;BME280;63555;49.920;17.868;2023-03-22T23:57:12;98169.44;;;10.70;63.79
